Time;durP1;ratioP1;P1;durP2;ratioP2;P2;SDS_P1;SDS_P2;PMS_P1;PMS_P2;Temp;Humidity;BMP_temperature;BMP_pressure;BME280_temperature;BME280_humidity;BME280_pressure;Samples;Min_cycle;Max_cycle;Signal;HPM_P1;HPM_P2
2023/08/15 00:01:45;;;;;;;14.77;9.33;;;24.10;80.50;;;;;;5023365;28;20528;-82
2023/08/15 00:04:11;;;;;;;15.37;9.20;;;24.10;79.90;;;;;;5020750;28;20216;-84
2023/08/15 00:06:38;;;;;;;12.77;9.03;;;24.10;80.00;;;;;;5020409;28;20955;-82
2023/08/15 00:09:05;;;;;;;11.50;9.17;;;24.00;80.30;;;;;;5023285;28;20415;-82
2023/08/15 00:11:31;;;;;;;13.57;10.13;;;24.00;80.60;;;;;;5024588;28;20514;-83
2023/08/15 00:13:57;;;;;;;12.60;9.53;;;24.00;80.60;;;;;;5024204;28;20424;-84
2023/08/15 00:16:23;;;;;;;14.87;8.37;;;24.00;80.90;;;;;;5020758;28;20214;-83
2023/08/15 00:18:48;;;;;;;13.80;8.50;;;23.90;81.10;;;;;;5025919;28;20911;-82
2023/08/15 00:21:14;;;;;;;10.50;7.53;;;23.90;81.10;;;;;;5030625;28;20241;-83
2023/08/15 00:23:40;;;;;;;15.83;9.53;;;23.90;81.20;;;;;;5019927;28;20525;-84
2023/08/15 00:26:05;;;;;;;12.03;8.80;;;23.90;81.20;;;;;;5023463;28;20167;-83
2023/08/15 00:28:31;;;;;;;15.13;10.27;;;23.90;81.20;;;;;;5030563;28;20193;-82
2023/08/15 00:30:56;;;;;;;12.90;9.17;;;23.90;81.40;;;;;;5024250;28;20247;-83
2023/08/15 00:33:22;;;;;;;12.23;9.27;;;23.90;81.20;;;;;;5021452;28;20186;-83
2023/08/15 00:35:49;;;;;;;14.30;9.17;;;23.90;81.10;;;;;;5021296;28;20220;-81
2023/08/15 00:38:15;;;;;;;13.80;9.30;;;23.90;81.10;;;;;;5026344;28;20204;-82
2023/08/15 00:40:41;;;;;;;12.80;8.00;;;23.90;81.20;;;;;;5025260;28;20522;-81
2023/08/15 00:43:08;;;;;;;12.27;8.43;;;24.00;80.90;;;;;;5026705;28;20176;-81
2023/08/15 00:45:37;;;;;;;13.83;9.73;;;24.00;80.60;;;;;;5034341;28;20448;-82
2023/08/15 00:48:04;;;;;;;11.27;8.47;;;24.00;80.50;;;;;;5029616;28;20499;-81
2023/08/15 00:50:30;;;;;;;10.43;8.23;;;24.00;80.60;;;;;;5025669;28;20771;-82
2023/08/15 00:52:59;;;;;;;9.47;7.47;;;24.00;80.80;;;;;;5028960;28;20654;-80
2023/08/15 00:55:25;;;;;;;13.80;10.03;;;24.00;80.80;;;;;;5029938;28;20201;-80
2023/08/15 00:57:52;;;;;;;16.20;7.87;;;24.00;80.90;;;;;;5029904;28;20430;-85
2023/08/15 01:00:18;;;;;;;12.33;9.53;;;23.90;80.60;;;;;;5022710;28;20483;-84
2023/08/15 01:02:43;;;;;;;13.70;9.77;;;23.90;80.50;;;;;;5025038;28;20469;-84
2023/08/15 01:05:09;;;;;;;17.50;9.00;;;23.90;80.50;;;;;;5027217;28;20207;-82
2023/08/15 01:07:35;;;;;;;10.83;8.17;;;23.90;80.50;;;;;;5027145;28;20633;-83
2023/08/15 01:10:01;;;;;;;12.57;8.87;;;23.80;80.60;;;;;;5030567;28;20232;-82
2023/08/15 01:12:36;;;;;;;11.20;8.40;;;23.80;80.90;;;;;;5028827;28;20187;-83
2023/08/15 01:15:13;;;;;;;12.10;8.53;;;23.70;81.10;;;;;;5020096;28;20758;-82
2023/08/15 01:17:47;;;;;;;12.33;9.10;;;23.70;81.20;;;;;;5019868;28;20441;-83
2023/08/15 01:20:17;;;;;;;17.50;8.80;;;23.70;81.40;;;;;;5050457;28;20490;-83
2023/08/15 01:22:46;;;;;;;12.23;8.47;;;23.70;81.40;;;;;;5043432;28;20424;-84
2023/08/15 01:25:12;;;;;;;10.30;7.80;;;23.70;81.70;;;;;;5020410;28;20492;-85
2023/08/15 01:27:39;;;;;;;12.10;8.80;;;23.70;81.90;;;;;;5032858;28;20448;-84
2023/08/15 01:30:05;;;;;;;13.03;8.83;;;23.60;81.90;;;;;;5020939;28;20468;-83
2023/08/15 01:32:44;;;;;;;12.87;10.00;;;23.50;82.50;;;;;;5023874;28;20433;-84
2023/08/15 01:35:33;;;;;;;11.63;9.10;;;23.50;82.70;;;;;;5027399;28;20448;-84
2023/08/15 01:38:10;;;;;;;12.60;9.10;;;23.60;81.90;;;;;;5026001;28;20455;-85
2023/08/15 01:40:37;;;;;;;11.17;8.40;;;23.50;81.80;;;;;;5011561;28;21008;-83
2023/08/15 01:43:05;;;;;;;13.60;9.80;;;23.40;81.70;;;;;;5014575;28;20420;-84
2023/08/15 01:45:31;;;;;;;15.47;10.13;;;23.40;81.90;;;;;;5024234;28;20428;-84
2023/08/15 01:47:57;;;;;;;11.90;8.97;;;23.30;82.40;;;;;;5020201;28;20509;-84
2023/08/15 01:50:23;;;;;;;12.40;8.87;;;23.30;82.50;;;;;;5023350;28;20535;-81
2023/08/15 01:52:48;;;;;;;15.43;9.03;;;23.30;82.40;;;;;;5041775;28;20421;-84
2023/08/15 01:55:14;;;;;;;12.37;8.60;;;23.20;82.70;;;;;;5022181;28;20210;-84
2023/08/15 01:57:40;;;;;;;15.57;8.80;;;23.20;83.10;;;;;;5022608;28;20195;-84
2023/08/15 02:00:07;;;;;;;12.53;9.73;;;23.20;83.10;;;;;;5019433;28;20220;-84
2023/08/15 02:02:33;;;;;;;11.00;8.53;;;23.20;82.80;;;;;;5013934;28;20201;-83
2023/08/15 02:05:01;;;;;;;12.90;9.07;;;23.20;82.40;;;;;;5026113;28;20422;-83
2023/08/15 02:07:28;;;;;;;13.27;9.13;;;23.20;82.40;;;;;;5026919;28;20185;-83
2023/08/15 02:09:54;;;;;;;10.33;8.63;;;23.20;82.10;;;;;;5020759;28;20444;-84
2023/08/15 02:12:20;;;;;;;16.87;8.90;;;23.20;81.90;;;;;;5020294;28;20439;-85
2023/08/15 02:14:45;;;;;;;11.60;8.13;;;23.10;81.90;;;;;;5022169;28;20294;-84
2023/08/15 02:17:13;;;;;;;10.60;8.17;;;23.10;82.40;;;;;;5024125;28;20212;-85
2023/08/15 02:19:41;;;;;;;12.60;8.50;;;23.00;82.80;;;;;;5026335;28;20482;-82
2023/08/15 02:22:07;;;;;;;12.40;8.67;;;23.00;82.70;;;;;;5020958;28;20536;-82
2023/08/15 02:24:32;;;;;;;13.63;9.13;;;23.00;82.50;;;;;;5026696;28;20437;-85
2023/08/15 02:26:59;;;;;;;15.50;9.03;;;23.00;82.40;;;;;;5031068;28;20190;-88
2023/08/15 02:29:25;;;;;;;12.57;9.07;;;23.00;82.20;;;;;;5031018;28;20460;-87
2023/08/15 02:31:57;;;;;;;13.67;9.20;;;23.00;82.20;;;;;;5023096;28;20914;-89
2023/08/15 02:34:28;;;;;;;13.93;9.77;;;22.90;82.40;;;;;;5027976;28;20463;-87
2023/08/15 02:36:54;;;;;;;14.43;10.23;;;22.80;82.80;;;;;;5028191;28;20458;-86
2023/08/15 02:39:20;;;;;;;14.07;10.23;;;22.80;82.80;;;;;;5027126;28;20529;-82
2023/08/15 02:41:46;;;;;;;13.33;9.27;;;22.80;83.00;;;;;;5025175;28;20228;-81
2023/08/15 02:44:12;;;;;;;13.87;9.70;;;22.80;83.10;;;;;;5020162;28;20187;-81
2023/08/15 02:46:38;;;;;;;16.00;10.17;;;22.80;83.10;;;;;;5022161;28;20308;-81
2023/08/15 02:49:04;;;;;;;13.67;9.90;;;22.80;83.10;;;;;;5027083;28;20441;-81
2023/08/15 02:51:30;;;;;;;14.10;10.67;;;22.90;83.00;;;;;;5026073;28;20227;-82
2023/08/15 02:53:56;;;;;;;13.33;9.90;;;22.80;83.10;;;;;;5027027;28;20327;-85
2023/08/15 02:56:22;;;;;;;15.10;9.73;;;22.90;83.30;;;;;;5030688;28;20476;-86
2023/08/15 02:58:50;;;;;;;10.43;8.90;;;22.90;83.40;;;;;;5026765;28;20223;-86
2023/08/15 03:01:17;;;;;;;15.57;9.33;;;22.90;83.40;;;;;;5024461;28;20280;-84
2023/08/15 03:03:44;;;;;;;17.47;10.00;;;23.00;83.00;;;;;;5031377;28;20443;-82
2023/08/15 03:06:09;;;;;;;14.13;9.87;;;23.10;82.40;;;;;;5021232;28;20460;-84
2023/08/15 03:08:35;;;;;;;19.13;10.47;;;23.00;82.20;;;;;;5024534;28;20434;-84
2023/08/15 03:11:00;;;;;;;16.07;10.03;;;23.00;82.20;;;;;;5027043;28;20206;-81
2023/08/15 03:13:26;;;;;;;18.70;9.73;;;22.90;82.40;;;;;;5022213;28;20235;-82
2023/08/15 03:15:53;;;;;;;13.30;9.70;;;22.90;82.40;;;;;;5023850;28;20220;-82
2023/08/15 03:18:20;;;;;;;13.60;9.40;;;22.90;82.40;;;;;;5026520;28;20439;-83
2023/08/15 03:21:00;;;;;;;12.80;9.20;;;22.90;82.50;;;;;;5018407;28;20529;-83
2023/08/15 03:23:26;;;;;;;17.30;10.57;;;22.80;82.80;;;;;;5028753;28;20413;-82
2023/08/15 03:26:00;;;;;;;12.40;8.43;;;22.80;83.00;;;;;;5028773;28;20605;-81
2023/08/15 03:28:27;;;;;;;13.60;9.13;;;22.80;83.00;;;;;;5027059;28;20243;-81
2023/08/15 03:30:53;;;;;;;15.70;9.90;;;22.80;82.50;;;;;;5026037;28;20486;-81
2023/08/15 03:33:19;;;;;;;11.77;8.87;;;22.80;82.40;;;;;;5017284;28;20436;-83
2023/08/15 03:35:49;;;;;;;13.80;9.10;;;22.80;82.50;;;;;;5017168;28;20523;-80
2023/08/15 03:38:19;;;;;;;14.10;9.40;;;22.80;82.40;;;;;;5017364;28;20436;-80
2023/08/15 03:40:47;;;;;;;16.83;10.40;;;22.70;82.50;;;;;;5014665;28;20463;-81
2023/08/15 03:43:13;;;;;;;14.27;9.60;;;22.70;82.70;;;;;;5018990;28;20439;-83
2023/08/15 03:45:40;;;;;;;15.20;9.60;;;22.60;82.80;;;;;;5019542;28;20436;-82
2023/08/15 03:48:07;;;;;;;15.67;8.87;;;22.60;82.80;;;;;;5016798;28;20510;-82
2023/08/15 03:50:36;;;;;;;13.93;9.70;;;22.60;83.00;;;;;;5019632;28;20460;-83
2023/08/15 03:53:03;;;;;;;16.40;9.57;;;22.60;82.80;;;;;;5023082;28;20816;-86
2023/08/15 03:55:29;;;;;;;19.77;12.73;;;22.60;83.00;;;;;;5023564;28;20484;-83
2023/08/15 03:57:57;;;;;;;20.40;12.73;;;22.60;83.10;;;;;;5023447;28;20447;-83
2023/08/15 04:00:24;;;;;;;16.53;12.10;;;22.50;83.30;;;;;;5020903;28;20485;-83
2023/08/15 04:02:51;;;;;;;17.90;11.60;;;22.50;83.40;;;;;;5042361;28;20434;-83
2023/08/15 04:05:18;;;;;;;12.20;9.10;;;22.50;83.60;;;;;;5022642;28;20474;-84
2023/08/15 04:07:44;;;;;;;15.67;9.80;;;22.50;83.40;;;;;;5021587;28;20276;-84
2023/08/15 04:10:13;;;;;;;14.90;10.77;;;22.50;83.10;;;;;;5038007;28;20479;-83
2023/08/15 04:12:40;;;;;;;15.77;10.10;;;22.50;83.10;;;;;;5022839;28;20189;-83
2023/08/15 04:15:06;;;;;;;15.77;11.30;;;22.50;83.40;;;;;;5020678;28;20467;-83
2023/08/15 04:17:32;;;;;;;15.73;10.27;;;22.40;83.40;;;;;;5026014;28;20448;-83
2023/08/15 04:19:58;;;;;;;12.93;10.00;;;22.40;83.60;;;;;;5027289;28;20439;-82
2023/08/15 04:22:23;;;;;;;14.30;9.83;;;22.40;83.60;;;;;;5029698;28;20193;-82
2023/08/15 04:24:49;;;;;;;14.57;10.17;;;22.40;83.40;;;;;;5029426;28;20197;-83
2023/08/15 04:27:15;;;;;;;16.23;10.23;;;22.40;83.30;;;;;;5017231;28;20185;-84
2023/08/15 04:29:41;;;;;;;15.33;10.13;;;22.40;83.30;;;;;;5026695;28;20452;-86
2023/08/15 04:32:06;;;;;;;12.10;8.73;;;22.40;83.40;;;;;;5028753;28;20590;-83
2023/08/15 04:34:32;;;;;;;14.50;10.60;;;22.40;83.30;;;;;;5027103;28;20756;-82
2023/08/15 04:36:57;;;;;;;15.40;10.50;;;22.50;83.10;;;;;;5022502;28;20226;-80
2023/08/15 04:39:26;;;;;;;15.00;10.07;;;22.30;83.30;;;;;;5041154;22;20225;-82
2023/08/15 04:41:52;;;;;;;19.03;12.60;;;22.30;83.60;;;;;;5008948;28;20237;-82
2023/08/15 04:44:19;;;;;;;19.70;12.10;;;22.20;84.40;;;;;;5028642;28;20447;-82
2023/08/15 04:46:45;;;;;;;18.03;10.80;;;22.30;84.70;;;;;;5024518;28;20206;-81
2023/08/15 04:49:13;;;;;;;21.53;11.90;;;22.40;84.60;;;;;;5026184;28;20437;-82
2023/08/15 04:51:41;;;;;;;15.47;10.90;;;22.40;84.70;;;;;;5024800;28;20229;-80
2023/08/15 04:54:11;;;;;;;19.33;11.20;;;22.50;84.40;;;;;;5031220;28;20428;-81
2023/08/15 04:56:37;;;;;;;13.97;9.60;;;22.50;84.30;;;;;;5032660;28;20525;-82
2023/08/15 04:59:03;;;;;;;19.03;10.00;;;22.60;84.00;;;;;;5031879;28;20416;-80
2023/08/15 05:01:28;;;;;;;18.93;11.90;;;22.60;83.70;;;;;;5031409;28;20225;-81
2023/08/15 05:03:56;;;;;;;14.67;9.87;;;22.70;83.30;;;;;;5031429;28;20893;-81
2023/08/15 05:06:21;;;;;;;12.40;9.50;;;22.70;82.80;;;;;;5030748;28;21231;-83
2023/08/15 05:08:47;;;;;;;13.40;10.23;;;22.70;82.50;;;;;;5030263;28;20438;-80
2023/08/15 05:11:13;;;;;;;13.87;10.10;;;22.70;82.40;;;;;;5028089;28;20304;-81
2023/08/15 05:13:38;;;;;;;16.53;10.03;;;22.70;82.40;;;;;;5024914;28;20193;-80
2023/08/15 05:16:04;;;;;;;16.00;9.63;;;22.70;82.40;;;;;;5028476;28;20210;-82
2023/08/15 05:18:30;;;;;;;16.20;10.10;;;22.70;82.50;;;;;;5022500;28;20264;-82
2023/08/15 05:20:55;;;;;;;20.03;10.00;;;22.70;82.50;;;;;;5023063;28;20212;-81
2023/08/15 05:23:21;;;;;;;13.10;9.80;;;22.80;82.70;;;;;;5024021;28;20269;-81
2023/08/15 05:25:47;;;;;;;17.40;10.03;;;22.90;82.20;;;;;;5015939;28;20193;-82
2023/08/15 05:28:12;;;;;;;16.73;10.50;;;22.90;82.20;;;;;;5018259;28;20421;-82
2023/08/15 05:30:39;;;;;;;16.43;10.17;;;23.00;81.80;;;;;;5014696;28;20215;-79
2023/08/15 05:33:08;;;;;;;12.77;9.37;;;23.10;81.50;;;;;;5020461;28;20440;-82
2023/08/15 05:35:34;;;;;;;16.90;10.47;;;23.10;81.10;;;;;;5021934;28;20486;-81
2023/08/15 05:38:00;;;;;;;14.20;10.10;;;23.00;80.80;;;;;;5021952;28;20982;-79
2023/08/15 05:40:26;;;;;;;14.00;9.80;;;22.90;81.10;;;;;;5016915;28;20221;-82
2023/08/15 05:42:52;;;;;;;15.93;9.30;;;22.90;81.20;;;;;;5018401;28;21011;-81
2023/08/15 05:45:19;;;;;;;14.47;9.70;;;23.00;81.20;;;;;;5015409;28;20963;-79
2023/08/15 05:47:45;;;;;;;13.97;9.33;;;22.90;81.40;;;;;;5019558;28;20193;-82
2023/08/15 05:50:10;;;;;;;16.00;10.33;;;22.90;81.50;;;;;;5019410;28;20534;-79
2023/08/15 05:52:37;;;;;;;13.73;9.83;;;22.90;81.20;;;;;;5011718;28;20204;-81
2023/08/15 05:55:03;;;;;;;20.67;10.53;;;23.00;81.20;;;;;;5024134;28;20240;-80
2023/08/15 05:57:28;;;;;;;15.10;9.90;;;23.10;80.90;;;;;;5018772;28;20495;-81
2023/08/15 05:59:55;;;;;;;16.20;11.10;;;23.20;80.60;;;;;;5021245;28;20205;-78
2023/08/15 06:02:20;;;;;;;14.27;10.13;;;23.20;80.20;;;;;;5021083;28;20197;-81
2023/08/15 06:04:48;;;;;;;11.23;8.60;;;23.30;80.00;;;;;;5024202;28;20429;-82
2023/08/15 06:07:14;;;;;;;16.03;10.37;;;23.30;79.90;;;;;;5027127;28;20214;-79
2023/08/15 06:09:40;;;;;;;14.53;9.67;;;23.40;79.90;;;;;;5013532;28;20516;-80
2023/08/15 06:12:06;;;;;;;15.93;10.97;;;23.40;79.90;;;;;;5018813;28;20213;-81
2023/08/15 06:14:32;;;;;;;14.57;9.87;;;23.50;79.70;;;;;;5016805;28;20271;-78
2023/08/15 06:16:58;;;;;;;17.73;9.63;;;23.60;79.70;;;;;;5035188;28;20459;-77
2023/08/15 06:19:23;;;;;;;15.57;9.87;;;23.70;79.60;;;;;;5022557;28;20439;-81
2023/08/15 06:21:49;;;;;;;14.70;10.50;;;23.80;79.30;;;;;;5030228;28;20215;-81
2023/08/15 06:24:14;;;;;;;14.73;10.70;;;24.00;79.00;;;;;;5030756;28;20189;-79
2023/08/15 06:26:41;;;;;;;14.20;10.63;;;24.00;78.00;;;;;;5027391;28;20218;-78
2023/08/15 06:29:07;;;;;;;11.07;8.90;;;24.00;77.70;;;;;;5010078;28;20184;-78
2023/08/15 06:31:33;;;;;;;17.13;11.00;;;24.10;77.80;;;;;;5008226;28;20436;-80
2023/08/15 06:34:03;;;;;;;13.10;10.17;;;24.30;77.40;;;;;;5026461;28;20403;-79
2023/08/15 06:36:29;;;;;;;14.97;10.50;;;24.40;77.30;;;;;;5037126;28;20476;-79
2023/08/15 06:38:55;;;;;;;16.07;9.90;;;24.40;76.40;;;;;;5030624;28;20454;-80
2023/08/15 06:41:21;;;;;;;12.20;10.10;;;24.50;76.50;;;;;;5008266;28;20481;-79
2023/08/15 06:43:46;;;;;;;14.97;10.13;;;24.60;76.40;;;;;;5025804;28;20194;-79
2023/08/15 06:46:32;;;;;;;14.00;10.17;;;24.60;76.10;;;;;;5028530;28;20211;-79
2023/08/15 06:48:59;;;;;;;19.03;10.57;;;24.70;75.90;;;;;;5006225;28;20193;-82
2023/08/15 06:51:25;;;;;;;14.60;9.53;;;24.80;75.90;;;;;;5023371;28;20474;-79
2023/08/15 06:53:52;;;;;;;17.53;10.20;;;24.90;75.80;;;;;;5021142;28;20915;-81
2023/08/15 06:56:21;;;;;;;16.13;10.50;;;24.90;75.70;;;;;;4998087;28;20210;-82
2023/08/15 06:58:47;;;;;;;15.10;9.80;;;25.00;75.20;;;;;;5016983;28;20430;-82
2023/08/15 07:01:12;;;;;;;14.23;9.80;;;25.10;75.20;;;;;;5012519;28;20467;-81
2023/08/15 07:03:39;;;;;;;15.80;10.73;;;25.20;74.80;;;;;;5012395;28;20659;-79
2023/08/15 07:06:05;;;;;;;13.90;10.03;;;25.30;74.60;;;;;;5013301;28;20952;-82
2023/08/15 07:08:32;;;;;;;17.60;9.80;;;25.50;73.30;;;;;;4992421;28;20567;-79
2023/08/15 07:10:59;;;;;;;14.03;10.17;;;25.40;72.90;;;;;;5013801;28;20459;-80
2023/08/15 07:13:25;;;;;;;16.50;10.97;;;25.60;72.70;;;;;;5015378;28;20430;-81
2023/08/15 07:15:56;;;;;;;19.53;11.73;;;25.60;72.70;;;;;;5011104;28;20484;-83
2023/08/15 07:18:23;;;;;;;13.50;9.57;;;25.40;72.40;;;;;;5009534;28;20464;-82
2023/08/15 07:20:51;;;;;;;14.00;10.27;;;25.50;72.60;;;;;;5014196;28;20496;-81
2023/08/15 07:23:17;;;;;;;13.70;9.80;;;25.30;71.30;;;;;;5013441;28;20428;-81
2023/08/15 07:25:43;;;;;;;15.30;9.50;;;25.30;71.40;;;;;;5016782;28;20785;-81
2023/08/15 07:28:11;;;;;;;11.03;8.23;;;25.70;70.40;;;;;;5017879;28;20423;-82
2023/08/15 07:30:37;;;;;;;18.70;9.00;;;26.00;69.80;;;;;;5020751;28;20467;-78
2023/08/15 07:33:03;;;;;;;10.60;8.03;;;26.00;69.10;;;;;;5001736;28;20983;-80
2023/08/15 07:35:28;;;;;;;13.37;8.80;;;26.30;67.60;;;;;;5024159;28;20297;-79
2023/08/15 07:37:54;;;;;;;14.47;9.20;;;26.20;67.60;;;;;;5022400;28;20195;-79
2023/08/15 07:40:21;;;;;;;12.07;9.10;;;26.30;67.90;;;;;;5002033;28;20220;-81
2023/08/15 07:42:49;;;;;;;11.73;9.10;;;26.60;67.50;;;;;;5021017;28;20252;-82
2023/08/15 07:45:20;;;;;;;12.60;9.20;;;26.80;66.70;;;;;;5003347;28;20444;-81
2023/08/15 07:47:51;;;;;;;10.77;8.50;;;26.50;66.40;;;;;;5004744;28;20443;-80
2023/08/15 07:50:18;;;;;;;14.70;9.60;;;26.10;67.90;;;;;;5017100;28;20536;-80
2023/08/15 07:52:44;;;;;;;14.77;9.33;;;26.00;68.20;;;;;;5021465;28;20454;-82
2023/08/15 07:55:11;;;;;;;12.20;8.73;;;26.10;68.20;;;;;;5025044;28;20539;-80
2023/08/15 07:57:37;;;;;;;11.27;9.33;;;26.30;68.00;;;;;;5029724;28;20510;-79
2023/08/15 08:00:04;;;;;;;10.40;7.63;;;26.40;67.60;;;;;;5029926;28;20455;-79
2023/08/15 08:02:30;;;;;;;15.60;8.53;;;26.60;67.60;;;;;;5013570;28;20443;-82
2023/08/15 08:04:56;;;;;;;12.30;8.03;;;26.90;66.30;;;;;;4995407;28;20428;-81
2023/08/15 08:07:24;;;;;;;15.23;8.40;;;27.10;65.80;;;;;;5016049;28;20192;-81
2023/08/15 08:09:50;;;;;;;9.03;7.73;;;27.40;65.40;;;;;;5018614;28;20432;-78
2023/08/15 08:12:16;;;;;;;14.87;9.13;;;27.50;64.70;;;;;;5030468;28;20470;-82
2023/08/15 08:14:42;;;;;;;10.53;7.80;;;27.70;64.20;;;;;;5026477;28;20502;-82
2023/08/15 08:17:08;;;;;;;9.10;7.73;;;27.80;64.20;;;;;;5035834;28;20235;-80
2023/08/15 08:19:34;;;;;;;12.47;8.77;;;27.90;63.70;;;;;;5034078;28;20194;-78
2023/08/15 08:22:01;;;;;;;10.50;8.23;;;28.00;63.40;;;;;;5024794;28;20220;-79
2023/08/15 08:24:28;;;;;;;11.10;8.47;;;28.10;63.50;;;;;;5036029;28;20443;-78
2023/08/15 08:26:53;;;;;;;9.70;7.87;;;28.20;63.20;;;;;;5034577;28;20456;-79
2023/08/15 08:29:20;;;;;;;13.03;8.97;;;28.30;63.10;;;;;;5023927;28;20467;-80
2023/08/15 08:31:47;;;;;;;10.80;7.57;;;28.40;62.80;;;;;;5013322;28;20263;-79
2023/08/15 08:34:15;;;;;;;10.20;8.30;;;28.40;62.90;;;;;;5021182;28;20440;-83
2023/08/15 08:36:41;;;;;;;8.97;7.53;;;28.60;62.60;;;;;;5018834;28;20452;-83
2023/08/15 08:39:07;;;;;;;14.90;8.30;;;28.70;62.50;;;;;;5019839;28;20449;-81
2023/08/15 08:41:36;;;;;;;15.10;8.70;;;28.80;62.50;;;;;;5019366;28;20491;-80
2023/08/15 08:44:02;;;;;;;10.90;8.20;;;28.80;62.20;;;;;;5027134;28;20249;-79
2023/08/15 08:46:29;;;;;;;13.17;8.23;;;28.80;62.60;;;;;;5029345;28;20787;-79
2023/08/15 08:48:59;;;;;;;10.07;7.53;;;28.80;62.60;;;;;;5027059;28;20421;-80
2023/08/15 08:51:26;;;;;;;12.50;7.67;;;28.90;62.20;;;;;;5022145;28;20472;-82
2023/08/15 08:53:52;;;;;;;11.07;7.40;;;29.10;62.20;;;;;;5031682;28;20428;-81
2023/08/15 08:56:19;;;;;;;14.93;8.50;;;29.10;62.20;;;;;;5030165;28;20475;-78
2023/08/15 08:58:49;;;;;;;10.30;8.17;;;29.10;61.00;;;;;;5012331;28;20453;-80
2023/08/15 09:01:16;;;;;;;10.80;7.53;;;28.80;62.20;;;;;;5019330;28;20535;-83
2023/08/15 09:03:42;;;;;;;13.17;8.10;;;28.90;61.70;;;;;;5028954;28;20471;-77
2023/08/15 09:06:08;;;;;;;14.20;8.83;;;29.00;61.60;;;;;;5026236;28;20429;-83
2023/08/15 09:08:34;;;;;;;15.37;10.40;;;29.00;62.00;;;;;;5018962;28;20437;-83
2023/08/15 09:11:00;;;;;;;10.93;8.50;;;29.00;62.30;;;;;;4998713;28;20221;-83
2023/08/15 09:13:27;;;;;;;11.67;8.13;;;29.00;62.80;;;;;;5007885;28;20426;-83
2023/08/15 09:15:59;;;;;;;10.20;7.50;;;29.20;62.30;;;;;;5019936;28;20213;-80
2023/08/15 09:18:26;;;;;;;13.77;7.67;;;29.30;60.70;;;;;;5008328;28;20439;-80
2023/08/15 09:20:52;;;;;;;9.40;7.50;;;29.40;60.40;;;;;;5019399;28;20457;-80
2023/08/15 09:23:18;;;;;;;11.10;7.43;;;29.40;59.60;;;;;;4998860;28;20426;-81
2023/08/15 09:25:43;;;;;;;12.07;7.43;;;29.30;59.90;;;;;;5025086;28;20216;-79
2023/08/15 09:28:09;;;;;;;8.17;6.80;;;29.20;60.10;;;;;;5023961;28;20210;-79
2023/08/15 09:30:35;;;;;;;9.40;6.63;;;29.20;59.60;;;;;;5005051;28;20211;-80
2023/08/15 09:33:03;;;;;;;8.63;4.97;;;29.20;59.90;;;;;;5017622;28;20201;-79
2023/08/15 09:35:31;;;;;;;7.57;4.10;;;29.20;56.40;;;;;;5009031;28;20527;-81
2023/08/15 09:37:56;;;;;;;13.23;4.80;;;29.20;55.30;;;;;;5016422;28;20433;-85
2023/08/15 09:40:24;;;;;;;7.70;4.90;;;29.20;54.90;;;;;;5010407;28;20505;-81
2023/08/15 09:42:50;;;;;;;8.50;4.27;;;29.20;53.00;;;;;;5005613;28;20187;-82
2023/08/15 09:45:18;;;;;;;7.37;4.33;;;29.10;54.00;;;;;;5013617;28;20445;-80
2023/08/15 09:47:45;;;;;;;6.93;4.00;;;29.00;53.70;;;;;;5024329;28;20496;-79
2023/08/15 09:50:14;;;;;;;6.27;4.20;;;29.00;54.50;;;;;;5028215;28;20487;-80
2023/08/15 09:52:41;;;;;;;10.47;4.33;;;29.10;54.50;;;;;;5026712;28;20436;-83
2023/08/15 09:55:10;;;;;;;7.07;4.40;;;29.20;54.00;;;;;;5022885;28;20476;-82
2023/08/15 09:57:41;;;;;;;6.30;4.27;;;29.10;53.30;;;;;;5028108;28;20479;-83
2023/08/15 10:00:18;;;;;;;5.97;3.93;;;29.10;53.40;;;;;;5025019;28;20456;-81
2023/08/15 10:03:06;;;;;;;10.10;3.60;;;29.20;53.30;;;;;;5020011;28;20491;-83
2023/08/15 10:05:33;;;;;;;20.23;4.17;;;29.30;52.60;;;;;;5024252;28;20479;-82
2023/08/15 10:08:00;;;;;;;7.97;4.17;;;29.20;53.20;;;;;;5016342;28;20432;-85
2023/08/15 10:10:27;;;;;;;7.57;3.53;;;29.10;53.30;;;;;;5013381;28;20488;-85
2023/08/15 10:12:55;;;;;;;6.33;4.13;;;29.10;53.70;;;;;;5017168;28;20424;-81
2023/08/15 10:15:22;;;;;;;10.07;3.90;;;29.30;54.10;;;;;;5022510;28;20546;-82
2023/08/15 10:17:49;;;;;;;8.30;4.10;;;29.40;53.70;;;;;;5003972;28;20464;-81
2023/08/15 10:20:21;;;;;;;7.10;4.57;;;29.30;54.20;;;;;;5023696;28;20572;-83
2023/08/15 10:22:54;;;;;;;10.53;4.00;;;29.40;54.60;;;;;;5018262;28;20987;-83
2023/08/15 10:25:39;;;;;;;6.70;4.23;;;29.40;54.90;;;;;;5028799;28;20496;-80
2023/08/15 10:28:08;;;;;;;9.13;4.67;;;29.40;54.90;;;;;;5018563;28;20453;-81
2023/08/15 10:30:44;;;;;;;8.60;4.20;;;29.50;54.80;;;;;;5027964;28;20528;-79
2023/08/15 10:33:18;;;;;;;9.47;4.50;;;29.40;55.30;;;;;;5033208;28;20452;-80
2023/08/15 10:35:56;;;;;;;6.90;4.23;;;29.40;55.70;;;;;;5027869;28;20475;-82
2023/08/15 10:38:25;;;;;;;11.53;5.03;;;29.40;55.40;;;;;;5005351;28;20450;-82
2023/08/15 10:40:53;;;;;;;8.30;4.77;;;29.30;54.90;;;;;;5009376;28;20468;-81
2023/08/15 10:43:25;;;;;;;8.27;4.97;;;29.20;54.50;;;;;;4988967;28;20449;-82
2023/08/15 10:45:55;;;;;;;6.47;4.30;;;29.20;54.90;;;;;;5006204;28;20428;-83
2023/08/15 10:48:50;;;;;;;5.90;4.10;;;29.20;54.40;;;;;;5018008;28;20476;-82
2023/08/15 10:51:20;;;;;;;11.80;4.23;;;29.20;54.80;;;;;;5007617;28;20657;-83
2023/08/15 10:53:53;;;;;;;10.17;4.47;;;29.30;54.90;;;;;;4994365;28;20421;-82
2023/08/15 10:56:30;;;;;;;8.03;4.50;;;29.50;54.50;;;;;;5017129;28;20476;-80
2023/08/15 10:58:58;;;;;;;6.60;3.93;;;29.80;53.30;;;;;;5026753;28;20482;-81
2023/08/15 11:01:26;;;;;;;7.53;4.30;;;30.20;53.40;;;;;;5008661;28;20607;-85
2023/08/15 11:03:54;;;;;;;6.17;3.10;;;30.90;51.20;;;;;;5009976;28;20448;-86
2023/08/15 11:06:21;;;;;;;5.87;2.93;;;31.20;46.30;;;;;;5023945;28;20433;-83
2023/08/15 11:08:48;;;;;;;8.47;3.23;;;31.20;46.70;;;;;;5011928;28;20433;-81
2023/08/15 11:11:16;;;;;;;7.73;3.10;;;30.70;46.70;;;;;;5003410;28;20477;-83
2023/08/15 11:13:47;;;;;;;4.40;3.37;;;30.20;48.20;;;;;;4997343;28;20465;-87
2023/08/15 11:16:18;;;;;;;4.97;3.57;;;29.90;48.90;;;;;;4995415;28;20489;-81
2023/08/15 11:18:45;;;;;;;7.93;4.13;;;29.60;49.80;;;;;;5023899;28;20421;-84
2023/08/15 11:21:13;;;;;;;5.90;3.53;;;29.40;50.50;;;;;;5011207;28;20971;-82
2023/08/15 11:23:39;;;;;;;5.90;3.40;;;29.30;51.30;;;;;;5009358;28;20452;-84
2023/08/15 11:26:15;;;;;;;6.07;4.00;;;29.30;51.80;;;;;;5006121;28;20426;-82
2023/08/15 11:28:40;;;;;;;7.10;3.67;;;29.30;51.70;;;;;;5015709;28;20483;-83
2023/08/15 11:31:13;;;;;;;5.43;4.20;;;29.20;52.20;;;;;;5015061;28;20464;-84
2023/08/15 11:33:39;;;;;;;9.63;3.97;;;28.90;52.60;;;;;;5018276;28;20444;-82
2023/08/15 11:36:07;;;;;;;8.60;3.80;;;29.20;52.60;;;;;;5013513;28;20498;-85
2023/08/15 11:38:37;;;;;;;6.13;3.43;;;29.50;52.20;;;;;;5017404;28;20178;-80
2023/08/15 11:41:04;;;;;;;8.23;3.53;;;29.90;51.70;;;;;;5025398;28;20479;-84
2023/08/15 11:43:31;;;;;;;8.13;4.23;;;30.20;51.20;;;;;;5003199;28;20432;-78
2023/08/15 11:46:00;;;;;;;7.77;4.30;;;30.60;50.30;;;;;;5037348;28;20516;-82
2023/08/15 11:48:26;;;;;;;5.30;3.93;;;30.80;50.30;;;;;;5037325;28;20425;-83
2023/08/15 11:50:52;;;;;;;6.33;4.10;;;31.20;49.80;;;;;;5015384;28;20464;-84
2023/08/15 11:53:31;;;;;;;6.30;4.20;;;31.30;49.50;;;;;;5014682;28;20955;-83
2023/08/15 11:55:57;;;;;;;6.70;4.83;;;31.60;49.50;;;;;;5017697;28;20463;-84
2023/08/15 11:58:30;;;;;;;8.07;4.40;;;31.70;50.20;;;;;;5018446;28;20420;-83
2023/08/15 12:01:01;;;;;;;13.00;5.90;;;31.50;49.50;;;;;;5016515;28;20241;-81
2023/08/15 12:03:29;;;;;;;9.40;5.67;;;30.80;52.90;;;;;;5015440;28;20417;-82
2023/08/15 12:05:57;;;;;;;9.80;6.87;;;30.60;54.60;;;;;;5017452;28;20521;-82
2023/08/15 12:08:27;;;;;;;8.80;5.73;;;30.30;55.70;;;;;;5016725;28;20429;-83
2023/08/15 12:10:55;;;;;;;11.47;5.53;;;30.60;56.20;;;;;;5014557;28;20464;-82
2023/08/15 12:13:35;;;;;;;10.47;7.43;;;30.50;55.70;;;;;;5012514;28;20493;-80
2023/08/15 12:16:02;;;;;;;11.40;7.13;;;29.90;57.00;;;;;;5015074;28;20484;-79
2023/08/15 12:18:29;;;;;;;13.80;7.07;;;29.90;57.00;;;;;;5018500;28;20417;-80
2023/08/15 12:20:56;;;;;;;11.23;6.20;;;29.90;57.40;;;;;;4996699;28;21007;-81
2023/08/15 12:23:23;;;;;;;8.80;5.80;;;30.50;56.90;;;;;;5012015;28;20426;-82
2023/08/15 12:25:49;;;;;;;11.13;7.07;;;31.20;55.40;;;;;;5018622;28;20473;-84
2023/08/15 12:28:18;;;;;;;11.67;8.30;;;30.90;56.40;;;;;;5020110;28;20523;-83
2023/08/15 12:30:44;;;;;;;11.33;7.80;;;29.70;60.00;;;;;;5010512;28;21116;-83
2023/08/15 12:33:11;;;;;;;12.70;8.13;;;29.70;60.30;;;;;;5000525;28;20415;-80
2023/08/15 12:35:37;;;;;;;9.13;7.40;;;29.40;60.40;;;;;;5013623;28;20469;-82
2023/08/15 12:38:04;;;;;;;10.00;6.83;;;29.20;60.90;;;;;;5006773;28;20424;-80